createdAt,value
2023-04-29T00:02:19.548Z,15.08
2023-04-29T00:04:47.396Z,15.08
2023-04-29T00:07:16.084Z,15.09
2023-04-29T00:09:43.857Z,15.07
2023-04-29T00:12:12.059Z,15.07
2023-04-29T00:14:39.691Z,15.07
2023-04-29T00:17:09.088Z,15.08
2023-04-29T00:19:36.964Z,15.08
2023-04-29T00:22:04.603Z,15.09
2023-04-29T00:24:32.188Z,15.08
2023-04-29T00:26:59.837Z,15.09
2023-04-29T00:29:27.790Z,15.08
2023-04-29T00:31:55.674Z,15.08
2023-04-29T00:34:24.615Z,15.09
2023-04-29T00:36:52.266Z,15.09
2023-04-29T00:39:19.835Z,15.09
2023-04-29T00:41:47.519Z,15.09
2023-04-29T00:44:15.349Z,15.09
2023-04-29T00:46:43.297Z,15.08
2023-04-29T00:49:12.358Z,15.07
2023-04-29T00:51:42.623Z,15.07
2023-04-29T00:54:11.972Z,15.08
2023-04-29T00:56:41.499Z,15.08
2023-04-29T00:59:11.299Z,15.08
2023-04-29T01:01:39.830Z,15.08
2023-04-29T01:04:08.258Z,15.07
2023-04-29T01:06:49.782Z,15.07
2023-04-29T01:09:33.803Z,15.07
2023-04-29T01:12:12.498Z,15.07
2023-04-29T01:14:40.726Z,15.06
2023-04-29T01:17:16.677Z,15.06
2023-04-29T01:19:49.090Z,15.07
2023-04-29T01:22:20.020Z,15.06
2023-04-29T01:24:49.318Z,15.05
2023-04-29T01:27:29.394Z,15.06
2023-04-29T01:30:03.987Z,15.05
2023-04-29T01:32:42.754Z,15.05
2023-04-29T01:35:20.479Z,15.06
2023-04-29T01:37:55.392Z,15.06
2023-04-29T01:40:27.952Z,15.05
2023-04-29T01:43:03.000Z,15.05
2023-04-29T01:45:33.627Z,15.05
2023-04-29T01:48:03.001Z,15.05
2023-04-29T01:50:30.753Z,15.05
2023-04-29T01:52:58.494Z,15.05
2023-04-29T01:55:27.824Z,15.06
2023-04-29T01:57:55.606Z,15.06
2023-04-29T02:00:23.604Z,15.07
2023-04-29T02:02:51.412Z,15.05
2023-04-29T02:05:19.065Z,15.07
2023-04-29T02:07:47.628Z,15.06
2023-04-29T02:10:15.355Z,15.07
2023-04-29T02:12:44.272Z,15.07
2023-04-29T02:15:12.219Z,15.07
2023-04-29T02:17:39.834Z,15.07
2023-04-29T02:20:10.186Z,15.07
2023-04-29T02:22:37.816Z,15.06
2023-04-29T02:25:06.491Z,15.08
2023-04-29T02:27:34.132Z,15.06
2023-04-29T02:30:04.792Z,15.06
2023-04-29T02:32:33.200Z,15.06
2023-04-29T02:35:00.856Z,15.05
2023-04-29T02:37:28.972Z,15.05
2023-04-29T02:39:56.571Z,15.04
2023-04-29T02:42:24.191Z,15.05
2023-04-29T02:44:51.816Z,15.04
2023-04-29T02:47:20.773Z,15.05
2023-04-29T02:49:48.362Z,15.05
2023-04-29T02:52:16.929Z,15.04
2023-04-29T02:54:44.825Z,15.05
2023-04-29T02:57:12.530Z,15.04
2023-04-29T02:59:40.091Z,15.05
2023-04-29T03:02:07.724Z,15.04
2023-04-29T03:04:36.651Z,15.04
2023-04-29T03:07:04.858Z,15.03
2023-04-29T03:09:32.476Z,15.04
2023-04-29T03:12:00.122Z,15.04
2023-04-29T03:14:28.035Z,15.04
2023-04-29T03:16:56.505Z,15.03
2023-04-29T03:19:24.193Z,15.02
2023-04-29T03:21:54.004Z,15.04
2023-04-29T03:24:22.120Z,15.03
2023-04-29T03:26:49.756Z,15.04
2023-04-29T03:29:17.341Z,15.03
2023-04-29T03:31:45.192Z,15.03
2023-04-29T03:34:14.489Z,15.03
2023-04-29T03:36:42.091Z,15.03
2023-04-29T03:39:11.904Z,15.04
2023-04-29T03:44:07.388Z,15.04
2023-04-29T03:46:35.124Z,15.04
2023-04-29T03:49:03.479Z,15.05
2023-04-29T03:51:31.286Z,15.05
2023-04-29T03:53:59.209Z,15.04
2023-04-29T03:56:28.145Z,15.05
2023-04-29T03:58:55.750Z,15.04
2023-04-29T04:01:23.669Z,15.05
2023-04-29T04:03:51.476Z,15.04
2023-04-29T04:06:19.241Z,15.05
2023-04-29T04:08:46.908Z,15.03
2023-04-29T04:11:15.182Z,15.03
2023-04-29T04:13:44.456Z,15.04
2023-04-29T04:16:12.446Z,15.04
2023-04-29T04:18:40.530Z,15.06
2023-04-29T04:21:08.660Z,15.05
2023-04-29T04:23:36.316Z,15.05
2023-04-29T04:26:03.939Z,15.06
2023-04-29T04:28:31.586Z,15.06
2023-04-29T04:31:00.526Z,15.06
2023-04-29T04:33:28.316Z,15.08
2023-04-29T04:35:56.128Z,15.07
2023-04-29T04:38:25.501Z,15.08
2023-04-29T04:40:53.153Z,15.08
2023-04-29T04:43:21.162Z,15.07
2023-04-29T04:45:48.853Z,15.08
2023-04-29T04:48:17.876Z,15.09
2023-04-29T04:50:45.453Z,15.09
2023-04-29T04:53:13.104Z,15.08
2023-04-29T04:55:40.672Z,15.08
2023-04-29T04:58:08.286Z,15.08
2023-04-29T05:00:35.900Z,15.08
2023-04-29T05:03:03.582Z,15.08
2023-04-29T05:05:34.447Z,15.07
2023-04-29T05:08:02.156Z,15.09
2023-04-29T05:10:29.733Z,15.09
2023-04-29T05:12:57.569Z,15.09
2023-04-29T05:15:27.275Z,15.09
2023-04-29T05:17:54.879Z,15.09
2023-04-29T05:20:22.491Z,15.10
2023-04-29T05:22:51.431Z,15.11
2023-04-29T05:25:19.033Z,15.11
2023-04-29T05:27:46.689Z,15.11
2023-04-29T05:30:14.384Z,15.12
2023-04-29T05:32:42.109Z,15.11
2023-04-29T05:35:10.371Z,15.11
2023-04-29T05:37:38.010Z,15.12
2023-04-29T05:40:10.297Z,15.11
2023-04-29T05:42:37.970Z,15.12
2023-04-29T05:45:06.343Z,15.12
2023-04-29T05:47:34.028Z,15.12
2023-04-29T05:50:01.664Z,15.11
2023-04-29T05:52:29.400Z,15.11
2023-04-29T05:54:57.829Z,15.11
2023-04-29T05:57:27.047Z,15.11
2023-04-29T05:59:55.242Z,15.12
2023-04-29T06:02:23.384Z,15.12
2023-04-29T06:04:51.567Z,15.12
2023-04-29T06:07:20.352Z,15.11
2023-04-29T06:09:51.253Z,15.11
2023-04-29T06:12:19.159Z,15.12
2023-04-29T06:14:48.271Z,15.13
2023-04-29T06:17:16.278Z,15.13
2023-04-29T06:19:46.899Z,15.14
2023-04-29T06:22:14.747Z,15.14
2023-04-29T06:24:42.461Z,15.13
2023-04-29T06:27:10.327Z,15.14
2023-04-29T06:29:38.078Z,15.15
2023-04-29T06:32:07.200Z,15.15
2023-04-29T06:34:34.981Z,15.14
2023-04-29T06:37:02.597Z,15.15
2023-04-29T06:39:30.212Z,15.15
2023-04-29T06:41:58.828Z,15.16
2023-04-29T06:44:26.528Z,15.16
2023-04-29T06:46:54.197Z,15.17
2023-04-29T06:49:23.213Z,15.16
2023-04-29T06:51:50.833Z,15.17
2023-04-29T06:54:18.439Z,15.17
2023-04-29T06:56:47.182Z,15.17
2023-04-29T06:59:15.318Z,15.17
2023-04-29T07:01:44.637Z,15.17
2023-04-29T07:04:13.633Z,15.17
2023-04-29T07:06:46.687Z,15.16
2023-04-29T07:09:14.937Z,15.16
2023-04-29T07:11:42.728Z,15.16
2023-04-29T07:14:10.377Z,15.15
2023-04-29T07:16:38.269Z,15.16
2023-04-29T07:19:05.989Z,15.16
2023-04-29T07:21:33.583Z,15.15
2023-04-29T07:24:04.896Z,15.16
2023-04-29T07:26:32.673Z,15.14
2023-04-29T07:29:00.304Z,15.15
2023-04-29T07:31:28.268Z,15.15
2023-04-29T07:33:57.061Z,15.16
2023-04-29T07:36:24.674Z,15.16
2023-04-29T07:38:52.394Z,15.16
2023-04-29T07:41:21.547Z,15.16
2023-04-29T07:43:49.134Z,15.14
2023-04-29T07:46:18.312Z,15.15
2023-04-29T07:48:46.199Z,15.13
2023-04-29T07:51:14.872Z,15.13
2023-04-29T07:53:43.135Z,15.14
2023-04-29T07:56:10.999Z,15.14
2023-04-29T07:58:39.950Z,15.13
2023-04-29T08:01:08.623Z,15.13
2023-04-29T08:03:38.935Z,15.14
2023-04-29T08:06:08.638Z,15.14
2023-04-29T08:08:36.548Z,15.14
2023-04-29T08:11:04.596Z,15.13
2023-04-29T08:13:32.244Z,15.13
2023-04-29T08:16:01.267Z,15.15
2023-04-29T08:18:28.971Z,15.15
2023-04-29T08:20:56.555Z,15.15
2023-04-29T08:23:24.181Z,15.16
2023-04-29T08:25:53.518Z,15.16
2023-04-29T08:28:21.091Z,15.16
2023-04-29T08:30:49.132Z,15.16
2023-04-29T08:33:18.151Z,15.16
2023-04-29T08:35:45.792Z,15.15
2023-04-29T08:38:13.437Z,15.15
2023-04-29T08:40:43.827Z,15.15
2023-04-29T08:43:11.629Z,15.15
2023-04-29T08:45:40.737Z,15.15
2023-04-29T08:48:09.143Z,15.15
2023-04-29T08:50:40.604Z,15.14
2023-04-29T08:53:08.852Z,15.13
2023-04-29T08:55:37.842Z,15.14
2023-04-29T08:58:06.132Z,15.13
2023-04-29T09:00:35.291Z,15.14
2023-04-29T09:03:13.201Z,15.13
2023-04-29T09:05:44.521Z,15.13
2023-04-29T09:08:13.480Z,15.14
2023-04-29T09:10:43.551Z,15.12
2023-04-29T09:13:24.317Z,15.12
2023-04-29T09:15:52.132Z,15.12
2023-04-29T09:18:44.113Z,15.11
2023-04-29T09:21:21.105Z,15.12
2023-04-29T09:23:51.464Z,15.12
2023-04-29T09:26:19.375Z,15.12
2023-04-29T09:28:47.832Z,15.12
2023-04-29T09:31:15.774Z,15.11
2023-04-29T09:33:51.539Z,15.11
2023-04-29T09:36:44.844Z,15.12
2023-04-29T09:39:15.037Z,15.12
2023-04-29T09:41:59.228Z,15.10
2023-04-29T09:44:30.013Z,15.12
2023-04-29T09:47:02.538Z,15.12
2023-04-29T09:49:32.783Z,15.11
2023-04-29T09:52:03.960Z,15.12
2023-04-29T09:54:32.852Z,15.12
2023-04-29T09:57:02.266Z,15.11
2023-04-29T09:59:29.970Z,15.13
2023-04-29T10:01:58.965Z,15.12
2023-04-29T10:04:28.085Z,15.13
2023-04-29T10:06:57.310Z,15.12
2023-04-29T10:09:26.253Z,15.12
2023-04-29T10:11:54.831Z,15.12
2023-04-29T10:14:25.865Z,15.14
2023-04-29T10:17:00.617Z,15.13
2023-04-29T10:19:35.257Z,15.13
2023-04-29T10:22:08.488Z,15.12
2023-04-29T10:24:40.067Z,15.13
2023-04-29T10:27:09.289Z,15.12
2023-04-29T10:29:38.932Z,15.12
2023-04-29T10:32:09.834Z,15.12
2023-04-29T10:34:38.859Z,15.12
2023-04-29T10:37:07.326Z,15.12
2023-04-29T10:39:45.143Z,15.11
2023-04-29T10:42:22.300Z,15.12
2023-04-29T10:45:20.870Z,15.12
2023-04-29T10:48:14.046Z,15.11
2023-04-29T10:51:02.533Z,15.12
2023-04-29T10:53:30.764Z,15.10
2023-04-29T10:56:05.774Z,15.11
2023-04-29T10:58:36.561Z,15.10
2023-04-29T11:01:04.854Z,15.10
2023-04-29T11:03:50.699Z,15.11
2023-04-29T11:06:18.499Z,15.12
2023-04-29T11:08:46.246Z,15.12
2023-04-29T11:11:16.041Z,15.11
2023-04-29T11:13:47.126Z,15.12
2023-04-29T11:16:15.024Z,15.13
2023-04-29T11:19:07.481Z,15.13
2023-04-29T11:21:36.606Z,15.13
2023-04-29T11:24:06.338Z,15.14
2023-04-29T11:26:35.880Z,15.14
2023-04-29T11:29:03.908Z,15.14
2023-04-29T11:31:32.317Z,15.15
2023-04-29T11:34:00.313Z,15.15
2023-04-29T11:36:28.426Z,15.16
2023-04-29T11:38:56.322Z,15.16
2023-04-29T11:41:24.345Z,15.15
2023-04-29T11:43:58.130Z,15.15
2023-04-29T11:46:26.145Z,15.15
2023-04-29T11:48:53.791Z,15.16
2023-04-29T11:51:22.489Z,15.17
2023-04-29T11:53:50.197Z,15.16
2023-04-29T11:56:17.862Z,15.16
2023-04-29T11:58:45.575Z,15.16
2023-04-29T12:01:14.693Z,15.16
2023-04-29T12:03:45.240Z,15.15
2023-04-29T12:06:15.017Z,15.15
2023-04-29T12:08:42.653Z,15.15
2023-04-29T12:11:10.245Z,15.15
2023-04-29T12:13:38.299Z,15.16
2023-04-29T12:16:06.907Z,15.15
2023-04-29T12:18:36.166Z,15.15
2023-04-29T12:21:03.841Z,15.15
2023-04-29T12:23:31.715Z,15.15
2023-04-29T12:26:02.652Z,15.15
2023-04-29T12:28:30.660Z,15.15
2023-04-29T12:31:00.063Z,15.14
2023-04-29T12:33:29.411Z,15.13
2023-04-29T12:35:59.735Z,15.14
2023-04-29T12:38:28.965Z,15.14
2023-04-29T12:40:57.526Z,15.15
2023-04-29T12:43:28.419Z,15.14
2023-04-29T12:46:01.509Z,15.15
2023-04-29T12:48:33.462Z,15.14
2023-04-29T12:51:03.242Z,15.14
2023-04-29T12:53:31.860Z,15.14
2023-04-29T12:55:59.792Z,15.13
2023-04-29T12:58:30.014Z,15.16
2023-04-29T13:00:57.966Z,15.15
2023-04-29T13:03:25.984Z,15.16
2023-04-29T13:05:54.789Z,15.15
2023-04-29T13:08:23.920Z,15.15
2023-04-29T13:10:51.587Z,15.15
2023-04-29T13:13:19.457Z,15.15
2023-04-29T13:15:47.455Z,15.14
2023-04-29T13:18:15.224Z,15.16
2023-04-29T13:20:42.849Z,15.16
2023-04-29T13:23:10.650Z,15.15
2023-04-29T13:25:39.592Z,15.16
2023-04-29T13:28:07.591Z,15.16
2023-04-29T13:30:35.316Z,15.17
2023-04-29T13:33:09.954Z,15.17
2023-04-29T13:35:41.526Z,15.16
2023-04-29T13:38:09.676Z,15.19
2023-04-29T13:40:42.907Z,15.18
2023-04-29T13:43:20.937Z,15.18
2023-04-29T13:45:53.207Z,15.17
2023-04-29T13:53:56.830Z,15.15
2023-04-29T14:01:54.226Z,15.15
2023-04-29T14:04:02.632Z,15.16
2023-04-29T14:06:30.483Z,15.15
2023-04-29T14:08:58.316Z,15.15
2023-04-29T14:11:27.259Z,15.16
2023-04-29T14:13:54.874Z,15.14
2023-04-29T14:16:22.558Z,15.15
2023-04-29T14:18:50.211Z,15.15
2023-04-29T14:21:18.037Z,15.14
2023-04-29T14:23:45.731Z,15.14
2023-04-29T14:28:45.191Z,15.15
2023-04-29T14:31:13.840Z,15.15
2023-04-29T14:33:41.605Z,15.15
2023-04-29T14:36:10.308Z,15.16
2023-04-29T14:38:37.893Z,15.15
2023-04-29T14:41:05.670Z,15.15
2023-04-29T14:43:33.298Z,15.15
2023-04-29T14:46:02.333Z,15.15
2023-04-29T14:48:30.059Z,15.16
2023-04-29T14:50:57.836Z,15.15
2023-04-29T14:53:25.458Z,15.15
2023-04-29T14:55:53.569Z,15.16
2023-04-29T14:58:21.228Z,15.16
2023-04-29T15:00:49.314Z,15.16
2023-04-29T15:03:22.372Z,15.16
2023-04-29T15:05:50.995Z,15.17
2023-04-29T15:08:19.075Z,15.16
2023-04-29T15:10:47.503Z,15.15
2023-04-29T15:13:15.389Z,15.15
2023-04-29T15:15:43.037Z,15.16
2023-04-29T15:18:10.675Z,15.15
2023-04-29T15:20:39.874Z,15.15
2023-04-29T15:23:08.452Z,15.15
2023-04-29T15:25:36.600Z,15.15
2023-04-29T15:28:04.656Z,15.15
2023-04-29T15:30:32.878Z,15.15
2023-04-29T15:33:00.822Z,15.16
2023-04-29T15:35:28.616Z,15.15
2023-04-29T15:37:59.169Z,15.16
2023-04-29T15:40:26.852Z,15.16
2023-04-29T15:42:54.458Z,15.15
2023-04-29T15:45:22.049Z,15.15
2023-04-29T15:47:49.659Z,15.15
2023-04-29T15:50:17.347Z,15.14
2023-04-29T15:52:44.974Z,15.16
2023-04-29T15:55:13.915Z,15.15
2023-04-29T15:57:42.736Z,15.15
2023-04-29T16:00:11.500Z,15.15
2023-04-29T16:02:39.273Z,15.15
2023-04-29T16:05:07.361Z,15.16
2023-04-29T16:07:35.596Z,15.14
2023-04-29T16:10:04.749Z,15.15
2023-04-29T16:12:33.939Z,15.15
2023-04-29T16:15:01.548Z,15.15
2023-04-29T16:17:29.616Z,15.16
2023-04-29T16:19:57.254Z,15.15
2023-04-29T16:22:24.849Z,15.17
2023-04-29T16:24:52.559Z,15.16
2023-04-29T16:27:20.188Z,15.17
2023-04-29T16:29:49.310Z,15.16
2023-04-29T16:32:17.227Z,15.17
2023-04-29T16:34:44.856Z,15.17
2023-04-29T16:37:12.693Z,15.17
2023-04-29T16:39:40.733Z,15.16
2023-04-29T16:42:08.630Z,15.17
2023-04-29T16:44:36.217Z,15.16
2023-04-29T16:47:05.185Z,15.17
2023-04-29T16:49:32.844Z,15.16
2023-04-29T16:52:00.440Z,15.17
2023-04-29T16:54:28.084Z,15.16
2023-04-29T16:56:55.675Z,15.16
2023-04-29T16:59:23.275Z,15.16
2023-04-29T17:01:51.177Z,15.16
2023-04-29T17:04:20.211Z,15.17
2023-04-29T17:06:48.518Z,15.16
2023-04-29T17:09:16.708Z,15.15
2023-04-29T17:11:44.268Z,15.16
2023-04-29T17:14:11.898Z,15.15
2023-04-29T17:16:39.551Z,15.15
2023-04-29T17:19:07.207Z,15.16
2023-04-29T17:21:36.240Z,15.15
2023-04-29T17:24:04.448Z,15.15
2023-04-29T17:26:32.028Z,15.15
2023-04-29T17:28:59.920Z,15.15
2023-04-29T17:31:35.457Z,15.16
2023-04-29T17:34:18.082Z,15.16
2023-04-29T17:36:48.029Z,15.15
2023-04-29T17:39:16.274Z,15.16
2023-04-29T17:41:43.995Z,15.15
2023-04-29T17:44:11.677Z,15.16
2023-04-29T17:46:39.975Z,15.16
2023-04-29T17:49:07.595Z,15.15
2023-04-29T17:51:35.206Z,15.15
2023-04-29T17:54:05.760Z,15.15
2023-04-29T17:56:34.868Z,15.16
2023-04-29T17:59:03.087Z,15.17
2023-04-29T18:01:30.745Z,15.16
2023-04-29T18:03:58.579Z,15.17
2023-04-29T18:06:28.130Z,15.17
2023-04-29T18:08:55.825Z,15.17
2023-04-29T18:11:25.137Z,15.17
2023-04-29T18:13:53.986Z,15.16
2023-04-29T18:16:21.700Z,15.18
2023-04-29T18:18:51.329Z,15.18
2023-04-29T18:21:21.615Z,15.18
2023-04-29T18:23:49.237Z,15.20
2023-04-29T18:26:18.254Z,15.19
2023-04-29T18:28:48.112Z,15.18
2023-04-29T18:31:17.026Z,15.19
2023-04-29T18:33:45.322Z,15.20
2023-04-29T18:36:14.147Z,15.19
2023-04-29T18:38:42.167Z,15.20
2023-04-29T18:41:09.977Z,15.20
2023-04-29T18:43:37.624Z,15.19
2023-04-29T18:46:06.718Z,15.20
2023-04-29T18:48:35.764Z,15.20
2023-04-29T18:51:04.364Z,15.19
2023-04-29T18:53:32.501Z,15.19
2023-04-29T18:56:00.202Z,15.20
2023-04-29T18:58:27.869Z,15.19
2023-04-29T19:00:57.636Z,15.19
2023-04-29T19:03:27.169Z,15.20
2023-04-29T19:05:54.783Z,15.19
2023-04-29T19:08:22.406Z,15.19
2023-04-29T19:10:50.629Z,15.18
2023-04-29T19:13:18.224Z,15.18
2023-04-29T19:15:50.448Z,15.19
2023-04-29T19:18:19.976Z,15.18
2023-04-29T19:20:49.295Z,15.19
2023-04-29T19:23:17.050Z,15.18
2023-04-29T19:25:44.722Z,15.19
2023-04-29T19:28:12.324Z,15.20
2023-04-29T19:30:39.996Z,15.19
2023-04-29T19:33:08.421Z,15.19
2023-04-29T19:35:36.729Z,15.20
2023-04-29T19:38:05.669Z,15.21
2023-04-29T19:40:33.322Z,15.20
2023-04-29T19:43:00.981Z,15.20
2023-04-29T19:45:28.706Z,15.20
2023-04-29T19:47:56.453Z,15.21
2023-04-29T19:50:24.328Z,15.20
2023-04-29T19:52:51.990Z,15.20
2023-04-29T19:55:21.065Z,15.20
2023-04-29T19:57:49.392Z,15.21
2023-04-29T20:00:17.382Z,15.20
2023-04-29T20:02:45.602Z,15.20
2023-04-29T20:05:13.644Z,15.20
2023-04-29T20:07:41.386Z,15.19
2023-04-29T20:10:10.077Z,15.21
2023-04-29T20:12:40.397Z,15.19
2023-04-29T20:15:09.579Z,15.20
2023-04-29T20:17:37.491Z,15.18
2023-04-29T20:20:08.894Z,15.19
2023-04-29T20:22:36.593Z,15.19
2023-04-29T20:25:04.251Z,15.18
2023-04-29T20:27:31.886Z,15.19
2023-04-29T20:30:00.937Z,15.17
2023-04-29T20:32:28.659Z,15.18
2023-04-29T20:34:56.273Z,15.18
2023-04-29T20:37:23.912Z,15.18
2023-04-29T20:39:51.704Z,15.17
2023-04-29T20:42:20.243Z,15.18
2023-04-29T20:44:47.951Z,15.17
2023-04-29T20:47:16.919Z,15.17
2023-04-29T20:49:44.501Z,15.18
2023-04-29T20:52:12.697Z,15.17
2023-04-29T20:54:40.294Z,15.17
2023-04-29T20:57:07.907Z,15.18
2023-04-29T20:59:35.550Z,15.17
2023-04-29T21:02:03.271Z,15.18
2023-04-29T21:04:32.338Z,15.17
2023-04-29T21:06:59.965Z,15.18
2023-04-29T21:09:27.593Z,15.18
2023-04-29T21:11:55.244Z,15.18
2023-04-29T21:14:22.874Z,15.18
2023-04-29T21:16:50.501Z,15.18
2023-04-29T21:19:18.117Z,15.18
2023-04-29T21:21:47.073Z,15.18
2023-04-29T21:24:14.682Z,15.19
2023-04-29T21:26:42.547Z,15.19
2023-04-29T21:29:10.548Z,15.19
2023-04-29T21:31:38.159Z,15.18
2023-04-29T21:34:06.072Z,15.18
2023-04-29T21:36:33.871Z,15.18
2023-04-29T21:39:02.851Z,15.17
2023-04-29T21:41:37.332Z,15.18
2023-04-29T21:44:06.966Z,15.18
2023-04-29T21:46:35.560Z,15.17
2023-04-29T21:49:03.923Z,15.17
2023-04-29T21:51:32.655Z,15.19
2023-04-29T21:54:05.875Z,15.17
2023-04-29T21:56:33.529Z,15.17
2023-04-29T21:59:01.250Z,15.16
2023-04-29T22:01:40.507Z,15.17
2023-04-29T22:04:08.491Z,15.16
2023-04-29T22:06:36.194Z,15.17
2023-04-29T22:09:06.537Z,15.17
2023-04-29T22:11:34.161Z,15.16
2023-04-29T22:14:01.867Z,15.16
2023-04-29T22:16:29.708Z,15.16
2023-04-29T22:18:58.225Z,15.16
2023-04-29T22:21:27.792Z,15.16
2023-04-29T22:23:55.735Z,15.16
2023-04-29T22:26:25.382Z,15.16
2023-04-29T22:28:53.044Z,15.15
2023-04-29T22:31:20.723Z,15.15
2023-04-29T22:33:48.414Z,15.15
2023-04-29T22:36:16.112Z,15.15
2023-04-29T22:38:43.715Z,15.14
2023-04-29T22:41:11.767Z,15.15
2023-04-29T22:43:40.763Z,15.15
2023-04-29T22:46:08.579Z,15.15
2023-04-29T22:48:36.283Z,15.16
2023-04-29T22:51:03.912Z,15.16
2023-04-29T22:53:31.614Z,15.15
2023-04-29T22:56:01.853Z,15.15
2023-04-29T22:58:29.499Z,15.16
2023-04-29T23:00:59.151Z,15.15
2023-04-29T23:03:27.976Z,15.15
2023-04-29T23:05:59.378Z,15.16
2023-04-29T23:08:27.318Z,15.15
2023-04-29T23:10:55.013Z,15.16
2023-04-29T23:13:22.681Z,15.15
2023-04-29T23:15:50.656Z,15.15
2023-04-29T23:18:20.005Z,15.15
2023-04-29T23:20:47.947Z,15.16
2023-04-29T23:23:15.694Z,15.16
2023-04-29T23:25:43.384Z,15.16
2023-04-29T23:28:11.018Z,15.15
2023-04-29T23:30:38.655Z,15.14
2023-04-29T23:33:06.252Z,15.15
2023-04-29T23:35:35.333Z,15.14
2023-04-29T23:38:02.929Z,15.15
2023-04-29T23:40:31.758Z,15.14
2023-04-29T23:42:59.530Z,15.14
2023-04-29T23:45:27.492Z,15.14
2023-04-29T23:47:55.233Z,15.13
2023-04-29T23:50:22.864Z,15.13
2023-04-29T23:52:51.999Z,15.14
2023-04-29T23:55:20.521Z,15.14
2023-04-29T23:57:48.434Z,15.13
